createdAt,value
2022-12-27T00:00:27.694Z,101146.47
2022-12-27T00:02:32.265Z,101164.00
2022-12-27T00:04:34.426Z,101160.13
2022-12-27T00:06:36.426Z,101166.31
2022-12-27T00:08:38.084Z,101134.19
2022-12-27T00:10:39.784Z,101163.81
2022-12-27T00:12:44.695Z,101161.34
2022-12-27T00:14:49.120Z,101171.09
2022-12-27T00:16:50.798Z,101177.53
2022-12-27T00:18:52.483Z,101191.44
2022-12-27T00:20:57.559Z,101185.97
2022-12-27T00:23:02.870Z,101186.84
2022-12-27T00:25:05.521Z,101194.97
2022-12-27T00:27:07.156Z,101195.00
2022-12-27T00:29:09.148Z,101197.81
2022-12-27T00:31:13.426Z,101199.56
2022-12-27T00:33:17.699Z,101196.09
2022-12-27T00:35:19.540Z,101195.44
2022-12-27T00:37:21.453Z,101195.31
2022-12-27T00:39:23.369Z,101195.44
2022-12-27T00:41:25.688Z,101191.88
2022-12-27T00:43:27.548Z,101211.16
2022-12-27T00:45:29.340Z,101199.97
2022-12-27T00:47:32.633Z,101204.34
2022-12-27T00:49:34.348Z,101200.72
2022-12-27T00:51:37.070Z,101200.94
2022-12-27T00:53:42.131Z,101198.19
2022-12-27T00:55:44.310Z,101211.31
2022-12-27T00:57:45.922Z,101211.78
2022-12-27T00:59:47.645Z,101207.28
2022-12-27T01:01:49.126Z,101215.13
2022-12-27T01:03:52.412Z,101216.38
2022-12-27T01:05:54.176Z,101218.94
2022-12-27T01:07:55.821Z,101216.34
2022-12-27T01:09:57.223Z,101226.91
2022-12-27T01:11:59.021Z,101232.97
2022-12-27T01:14:03.726Z,101233.47
2022-12-27T01:16:09.868Z,101233.72
2022-12-27T01:18:11.553Z,101240.75
2022-12-27T01:20:14.312Z,101245.97
2022-12-27T01:22:15.866Z,101245.13
2022-12-27T01:24:17.456Z,101260.38
2022-12-27T01:26:19.937Z,101255.13
2022-12-27T01:28:21.511Z,101266.69
2022-12-27T01:30:23.184Z,101261.22
2022-12-27T01:32:24.718Z,101272.88
2022-12-27T01:34:26.520Z,101271.44
2022-12-27T01:36:30.654Z,101273.00
2022-12-27T01:38:32.208Z,101271.19
2022-12-27T01:40:35.546Z,101270.59
2022-12-27T01:42:37.235Z,101276.56
2022-12-27T01:44:49.567Z,101284.53
2022-12-27T01:46:51.433Z,101280.97
2022-12-27T01:48:52.857Z,101275.78
2022-12-27T01:50:59.851Z,101279.34
2022-12-27T01:53:08.962Z,101275.09
2022-12-27T01:55:20.627Z,101288.34
2022-12-27T01:57:22.514Z,101277.94
2022-12-27T01:59:25.054Z,101287.78
2022-12-27T02:01:29.590Z,101294.34
2022-12-27T02:03:34.946Z,101292.75
2022-12-27T02:05:36.895Z,101287.44
2022-12-27T02:07:47.765Z,101275.09
2022-12-27T02:09:56.276Z,101281.28
2022-12-27T02:11:58.515Z,101282.22
2022-12-27T02:14:00.218Z,101291.09
2022-12-27T02:16:01.683Z,101292.75
2022-12-27T02:18:03.551Z,101290.16
2022-12-27T02:20:10.952Z,101299.88
2022-12-27T02:22:56.847Z,101295.50
2022-12-27T02:25:23.361Z,101300.97
2022-12-27T02:27:42.946Z,101305.47
2022-12-27T02:29:55.522Z,101294.78
2022-12-27T02:32:03.524Z,101308.13
2022-12-27T02:34:11.510Z,101312.22
2022-12-27T02:36:16.549Z,101317.44
2022-12-27T02:38:21.519Z,101315.97
2022-12-27T02:40:25.467Z,101322.72
2022-12-27T02:42:27.128Z,101323.53
2022-12-27T02:44:28.576Z,101331.47
2022-12-27T02:46:32.089Z,101325.38
2022-12-27T02:48:33.666Z,101335.69
2022-12-27T02:50:52.879Z,101334.66
2022-12-27T02:53:06.299Z,101334.66
2022-12-27T02:55:22.841Z,101334.81
2022-12-27T02:57:33.994Z,101335.84
2022-12-27T02:59:55.176Z,101346.72
2022-12-27T03:02:10.908Z,101340.72
2022-12-27T03:04:24.525Z,101340.72
2022-12-27T03:06:42.049Z,101347.84
2022-12-27T03:08:53.757Z,101356.75
2022-12-27T03:10:58.732Z,101346.06
2022-12-27T03:13:19.022Z,101353.09
2022-12-27T03:15:37.138Z,101353.38
2022-12-27T03:17:49.033Z,101370.88
2022-12-27T03:19:58.546Z,101364.03
2022-12-27T03:22:00.276Z,101373.72
2022-12-27T03:24:02.931Z,101371.81
2022-12-27T03:26:06.208Z,101344.56
2022-12-27T03:28:13.521Z,101380.53
2022-12-27T03:30:15.181Z,101376.34
2022-12-27T03:32:17.640Z,101374.38
2022-12-27T03:34:25.643Z,101374.34
2022-12-27T03:36:28.756Z,101367.44
2022-12-27T03:38:34.104Z,101371.06
2022-12-27T03:40:49.451Z,101386.84
2022-12-27T03:42:56.258Z,101383.41
2022-12-27T03:44:58.030Z,101385.13
2022-12-27T03:47:06.925Z,101383.88
2022-12-27T03:49:20.991Z,101377.66
2022-12-27T03:51:27.931Z,101388.34
2022-12-27T03:53:34.195Z,101390.06
2022-12-27T03:55:36.391Z,101392.56
2022-12-27T03:57:38.454Z,101381.03
2022-12-27T03:59:40.186Z,101386.16
2022-12-27T04:01:41.896Z,101392.19
2022-12-27T04:03:43.840Z,101382.47
2022-12-27T04:05:45.484Z,101385.13
2022-12-27T04:07:48.210Z,101399.19
2022-12-27T04:09:49.798Z,101385.97
2022-12-27T04:11:51.358Z,101387.59
2022-12-27T04:13:52.985Z,101391.94
2022-12-27T04:15:54.425Z,101381.53
2022-12-27T04:17:56.015Z,101394.63
2022-12-27T04:19:57.629Z,101387.69
2022-12-27T04:21:59.337Z,101389.50
2022-12-27T04:24:02.184Z,101393.94
2022-12-27T04:26:03.865Z,101387.00
2022-12-27T04:28:05.221Z,101389.44
2022-12-27T04:30:07.957Z,101385.84
2022-12-27T04:32:09.629Z,101391.22
2022-12-27T04:34:11.041Z,101389.50
2022-12-27T04:36:12.747Z,101385.88
2022-12-27T04:38:14.121Z,101389.38
2022-12-27T04:40:17.078Z,101400.69
2022-12-27T04:42:18.827Z,101396.44
2022-12-27T04:44:20.432Z,101392.16
2022-12-27T04:46:24.382Z,101391.38
2022-12-27T04:48:29.651Z,101400.09
2022-12-27T04:50:32.469Z,101397.84
2022-12-27T04:52:34.053Z,101411.22
2022-12-27T04:54:35.897Z,101411.06
2022-12-27T04:56:39.095Z,101404.06
2022-12-27T04:58:40.848Z,101417.00
2022-12-27T05:00:42.553Z,101405.34
2022-12-27T05:02:44.144Z,101401.66
2022-12-27T05:04:47.848Z,101398.34
2022-12-27T05:06:49.617Z,101397.44
2022-12-27T05:08:51.272Z,101393.66
2022-12-27T05:10:52.947Z,101390.13
2022-12-27T05:12:56.007Z,101389.22
2022-12-27T05:14:57.626Z,101392.63
2022-12-27T05:16:59.121Z,101394.53
2022-12-27T05:19:01.142Z,101388.50
2022-12-27T05:21:03.080Z,101400.81
2022-12-27T05:23:04.728Z,101400.13
2022-12-27T05:25:06.598Z,101407.50
2022-12-27T05:27:08.237Z,101407.59
2022-12-27T05:29:11.078Z,101414.41
2022-12-27T05:31:12.760Z,101405.59
2022-12-27T05:33:14.378Z,101416.25
2022-12-27T05:35:16.192Z,101406.53
2022-12-27T05:37:17.845Z,101421.63
2022-12-27T05:39:19.533Z,101428.75
2022-12-27T05:41:21.225Z,101428.72
2022-12-27T05:43:22.613Z,101431.28
2022-12-27T05:45:25.688Z,101427.88
2022-12-27T05:47:27.403Z,101426.28
2022-12-27T05:49:28.992Z,101431.53
2022-12-27T05:51:30.942Z,101419.13
2022-12-27T05:53:32.935Z,101433.03
2022-12-27T05:55:34.760Z,101445.28
2022-12-27T05:57:36.765Z,101433.84
2022-12-27T05:59:38.494Z,101426.69
2022-12-27T06:01:41.294Z,101442.69
2022-12-27T06:03:43.118Z,101448.78
2022-12-27T06:05:44.505Z,101459.59
2022-12-27T06:07:46.094Z,101453.34
2022-12-27T06:09:47.687Z,101459.31
2022-12-27T06:11:49.206Z,101450.59
2022-12-27T06:13:52.456Z,101463.66
2022-12-27T06:15:54.023Z,101467.06
2022-12-27T06:18:00.055Z,101460.13
2022-12-27T06:20:01.634Z,101455.66
2022-12-27T06:22:03.220Z,101453.28
2022-12-27T06:24:05.462Z,101463.97
2022-12-27T06:26:08.776Z,101464.00
2022-12-27T06:28:10.333Z,101462.00
2022-12-27T06:30:13.070Z,101464.97
2022-12-27T06:32:14.650Z,101464.66
2022-12-27T06:34:17.685Z,101462.09
2022-12-27T06:36:21.040Z,101461.25
2022-12-27T06:38:23.337Z,101469.19
2022-12-27T06:40:25.058Z,101471.09
2022-12-27T06:42:26.413Z,101472.84
2022-12-27T06:44:28.042Z,101474.56
2022-12-27T06:46:30.345Z,101477.88
2022-12-27T06:48:32.110Z,101471.69
2022-12-27T06:50:36.210Z,101481.38
2022-12-27T06:52:37.808Z,101479.72
2022-12-27T06:54:39.554Z,101472.75
2022-12-27T06:56:44.485Z,101483.13
2022-12-27T06:58:47.625Z,101478.25
2022-12-27T07:00:49.608Z,101481.81
2022-12-27T07:02:51.322Z,101487.03
2022-12-27T07:04:52.775Z,101475.66
2022-12-27T07:06:55.714Z,101489.41
2022-12-27T07:09:00.815Z,101490.72
2022-12-27T07:11:04.523Z,101496.47
2022-12-27T07:13:06.174Z,101495.97
2022-12-27T07:15:08.758Z,101487.41
2022-12-27T07:17:10.427Z,101503.13
2022-12-27T07:19:11.839Z,101510.09
2022-12-27T07:21:15.652Z,101504.16
2022-12-27T07:23:19.548Z,101511.22
2022-12-27T07:25:21.225Z,101509.63
2022-12-27T07:27:23.091Z,101508.75
2022-12-27T07:29:24.815Z,101514.78
2022-12-27T07:31:26.762Z,101518.22
2022-12-27T07:33:28.479Z,101528.75
2022-12-27T07:35:30.092Z,101525.19
2022-12-27T07:37:31.824Z,101523.53
2022-12-27T07:39:34.742Z,101528.72
2022-12-27T07:41:37.264Z,101533.84
2022-12-27T07:43:39.309Z,101528.56
2022-12-27T07:45:40.968Z,101530.53
2022-12-27T07:47:42.599Z,101534.03
2022-12-27T07:49:44.157Z,101533.91
2022-12-27T07:51:45.766Z,101538.31
2022-12-27T07:53:48.149Z,101546.06
2022-12-27T07:55:51.096Z,101558.41
2022-12-27T07:57:53.003Z,101554.63
2022-12-27T07:59:55.014Z,101551.31
2022-12-27T08:01:57.066Z,101548.84
2022-12-27T08:03:58.727Z,101555.72
2022-12-27T08:06:00.595Z,101548.84
2022-12-27T08:08:02.535Z,101552.84
2022-12-27T08:10:04.721Z,101550.13
2022-12-27T08:12:08.687Z,101552.78
2022-12-27T08:14:10.363Z,101549.25
2022-12-27T08:16:14.959Z,101558.78
2022-12-27T08:18:16.553Z,101557.22
2022-12-27T08:20:18.208Z,101558.16
2022-12-27T08:22:19.801Z,101559.91
2022-12-27T08:24:21.466Z,101562.25
2022-12-27T08:26:22.897Z,101561.63
2022-12-27T08:28:26.320Z,101563.34
2022-12-27T08:30:28.432Z,101571.69
2022-12-27T08:32:30.059Z,101552.53
2022-12-27T08:34:31.779Z,101568.09
2022-12-27T08:38:54.964Z,101568.13
2022-12-27T08:40:56.631Z,101570.75
2022-12-27T08:42:58.963Z,101564.31
2022-12-27T08:45:01.941Z,101562.44
2022-12-27T08:47:03.619Z,101560.63
2022-12-27T08:49:05.007Z,101565.69
2022-12-27T08:51:12.937Z,101553.28
2022-12-27T08:53:16.166Z,101555.84
2022-12-27T08:55:17.955Z,101562.09
2022-12-27T08:57:19.756Z,101563.84
2022-12-27T08:59:21.544Z,101562.28
2022-12-27T09:01:24.755Z,101563.91
2022-12-27T09:03:26.447Z,101565.09
2022-12-27T09:05:28.253Z,101567.34
2022-12-27T09:07:29.956Z,101569.94
2022-12-27T09:09:31.393Z,101565.56
2022-12-27T09:11:34.349Z,101582.25
2022-12-27T09:13:36.059Z,101575.81
2022-12-27T09:15:37.804Z,101562.44
2022-12-27T09:17:41.626Z,101571.34
2022-12-27T09:19:43.203Z,101567.38
2022-12-27T09:21:44.752Z,101573.28
2022-12-27T09:23:47.083Z,101561.78
2022-12-27T09:25:48.826Z,101578.50
2022-12-27T09:27:50.441Z,101573.09
2022-12-27T09:29:52.071Z,101565.97
2022-12-27T09:31:53.841Z,101574.91
2022-12-27T09:33:57.640Z,101581.06
2022-12-27T09:36:04.398Z,101587.97
2022-12-27T09:38:05.997Z,101585.41
2022-12-27T09:40:09.818Z,101577.09
2022-12-27T09:42:48.492Z,101583.28
2022-12-27T09:44:51.896Z,101574.00
2022-12-27T09:47:00.675Z,101584.38
2022-12-27T09:49:03.872Z,101595.94
2022-12-27T09:51:12.517Z,101583.63
2022-12-27T09:53:20.435Z,101597.84
2022-12-27T09:55:32.173Z,101583.56
2022-12-27T09:57:37.413Z,101592.31
2022-12-27T09:59:45.131Z,101590.38
2022-12-27T10:01:46.810Z,101592.06
2022-12-27T10:03:48.977Z,101594.00
2022-12-27T10:05:59.427Z,101583.44
2022-12-27T10:08:20.650Z,101581.69
2022-12-27T10:10:31.713Z,101574.97
2022-12-27T10:13:11.359Z,101579.44
2022-12-27T10:15:23.600Z,101580.81
2022-12-27T10:17:40.007Z,101594.88
2022-12-27T10:19:49.740Z,101576.34
2022-12-27T10:22:03.748Z,101576.03
2022-12-27T10:24:19.052Z,101577.00
2022-12-27T10:26:21.066Z,101587.59
2022-12-27T10:28:25.115Z,101581.38
2022-12-27T10:30:29.830Z,101588.78
2022-12-27T10:32:31.350Z,101595.59
2022-12-27T10:34:32.982Z,101583.22
2022-12-27T10:36:34.476Z,101583.56
2022-12-27T10:38:37.473Z,101607.97
2022-12-27T10:40:46.099Z,101596.25
2022-12-27T10:43:00.548Z,101616.44
2022-12-27T10:45:28.120Z,101602.91
2022-12-27T10:47:32.688Z,101607.50
2022-12-27T10:49:35.305Z,101624.28
2022-12-27T10:51:39.599Z,101624.13
2022-12-27T10:53:57.926Z,101619.88
2022-12-27T10:56:12.711Z,101634.72
2022-12-27T10:58:31.631Z,101622.50
2022-12-27T11:00:33.333Z,101631.28
2022-12-27T11:02:35.683Z,101616.25
2022-12-27T11:04:55.070Z,101623.13
2022-12-27T11:07:13.024Z,101620.34
2022-12-27T11:09:25.762Z,101631.72
2022-12-27T11:11:27.519Z,101622.06
2022-12-27T11:13:29.124Z,101629.16
2022-12-27T11:15:31.581Z,101638.03
2022-12-27T11:17:37.531Z,101640.69
2022-12-27T11:19:44.844Z,101644.16
2022-12-27T11:21:46.676Z,101645.84
2022-12-27T11:23:51.741Z,101654.81
2022-12-27T11:25:56.620Z,101649.69
2022-12-27T11:28:02.440Z,101642.41
2022-12-27T11:30:04.720Z,101635.72
2022-12-27T11:32:10.972Z,101639.13
2022-12-27T11:34:16.305Z,101649.72
2022-12-27T11:36:25.812Z,101644.56
2022-12-27T11:38:30.146Z,101647.91
2022-12-27T11:40:31.855Z,101644.44
2022-12-27T11:42:38.969Z,101647.97
2022-12-27T11:44:44.510Z,101659.38
2022-12-27T11:46:57.042Z,101658.22
2022-12-27T11:49:04.074Z,101651.31
2022-12-27T11:51:24.178Z,101648.66
2022-12-27T11:53:56.133Z,101642.34
2022-12-27T11:56:18.212Z,101633.53
2022-12-27T11:58:52.249Z,101639.66
2022-12-27T12:01:05.231Z,101650.84
2022-12-27T12:04:01.415Z,101642.81
2022-12-27T12:06:19.999Z,101649.81
2022-12-27T12:08:45.289Z,101650.50
2022-12-27T12:10:53.030Z,101653.13
2022-12-27T12:13:20.266Z,101658.44
2022-12-27T12:15:52.953Z,101634.91
2022-12-27T12:18:10.477Z,101642.84
2022-12-27T12:20:43.203Z,101646.31
2022-12-27T12:23:07.285Z,101665.06
2022-12-27T12:25:53.138Z,101659.69
2022-12-27T12:28:47.679Z,101661.53
2022-12-27T12:31:05.628Z,101652.66
2022-12-27T12:33:31.152Z,101661.34
2022-12-27T12:35:48.465Z,101667.59
2022-12-27T12:38:10.457Z,101665.06
2022-12-27T12:40:30.548Z,101670.34
2022-12-27T12:42:42.493Z,101675.44
2022-12-27T12:45:20.434Z,101665.06
2022-12-27T12:47:43.930Z,101669.78
2022-12-27T12:50:14.736Z,101680.00
2022-12-27T12:52:31.081Z,101662.78
2022-12-27T12:54:53.885Z,101655.00
2022-12-27T12:57:12.307Z,101670.53
2022-12-27T12:59:34.653Z,101680.00
2022-12-27T13:01:54.052Z,101674.59
2022-12-27T13:04:23.095Z,101679.06
2022-12-27T13:06:55.913Z,101669.44
2022-12-27T13:09:10.177Z,101657.97
2022-12-27T13:11:30.217Z,101666.72
2022-12-27T13:13:44.059Z,101672.22
2022-12-27T13:16:08.398Z,101683.81
2022-12-27T13:18:28.408Z,101677.44
2022-12-27T13:21:00.302Z,101694.34
2022-12-27T13:23:12.608Z,101695.75
2022-12-27T13:25:27.895Z,101702.00
2022-12-27T13:27:38.273Z,101702.63
2022-12-27T13:30:01.783Z,101700.84
2022-12-27T13:32:19.043Z,101710.19
2022-12-27T13:34:32.250Z,101699.16
2022-12-27T13:36:49.431Z,101705.66
2022-12-27T13:39:10.273Z,101716.84
2022-12-27T13:41:30.220Z,101702.03
2022-12-27T13:44:05.955Z,101705.56
2022-12-27T13:46:25.128Z,101709.94
2022-12-27T13:48:55.091Z,101705.75
2022-12-27T13:51:16.755Z,101714.47
2022-12-27T13:53:54.058Z,101703.06
2022-12-27T13:56:43.192Z,101709.13
2022-12-27T13:58:59.498Z,101710.97
2022-12-27T14:01:04.685Z,101718.97
2022-12-27T14:03:43.992Z,101722.63
2022-12-27T14:06:27.890Z,101715.56
2022-12-27T14:08:50.463Z,101719.31
2022-12-27T14:11:00.427Z,101717.69
2022-12-27T14:13:06.002Z,101728.47
2022-12-27T14:15:14.250Z,101722.31
2022-12-27T14:17:27.083Z,101713.53
2022-12-27T14:20:16.557Z,101721.63
2022-12-27T14:22:35.020Z,101723.50
2022-12-27T14:25:30.181Z,101726.19
2022-12-27T14:28:12.023Z,101724.63
2022-12-27T14:30:33.947Z,101742.50
2022-12-27T14:33:05.351Z,101739.78
2022-12-27T14:35:44.171Z,101740.81
2022-12-27T14:38:20.782Z,101755.13
2022-12-27T14:40:50.230Z,101754.03
2022-12-27T14:43:36.024Z,101758.81
2022-12-27T14:46:17.509Z,101759.59
2022-12-27T14:49:00.659Z,101759.53
2022-12-27T14:54:26.818Z,101753.22
2022-12-27T14:56:33.540Z,101743.56
2022-12-27T14:58:51.077Z,101764.94
2022-12-27T15:01:12.338Z,101758.00
2022-12-27T15:03:33.663Z,101764.22
2022-12-27T15:05:55.106Z,101770.34
2022-12-27T15:08:25.534Z,101775.63
2022-12-27T15:11:03.792Z,101773.22
2022-12-27T15:13:15.423Z,101776.66
2022-12-27T15:15:27.688Z,101779.06
2022-12-27T15:17:44.304Z,101790.59
2022-12-27T15:20:15.014Z,101790.75
2022-12-27T15:22:27.808Z,101788.25
2022-12-27T15:24:43.792Z,101780.38
2022-12-27T15:26:51.314Z,101791.06
2022-12-27T15:29:20.589Z,101791.72
2022-12-27T15:31:30.114Z,101778.63
2022-12-27T15:33:41.050Z,101779.38
2022-12-27T15:35:56.248Z,101772.63
2022-12-27T15:38:07.517Z,101777.91
2022-12-27T15:40:24.302Z,101772.63
2022-12-27T15:42:48.970Z,101772.59
2022-12-27T15:45:00.958Z,101769.28
2022-12-27T15:47:35.452Z,101762.28
2022-12-27T15:50:06.342Z,101764.22
2022-12-27T15:52:13.461Z,101758.13
2022-12-27T15:54:26.785Z,101757.25
2022-12-27T15:57:02.683Z,101759.06
2022-12-27T15:59:37.615Z,101759.16
2022-12-27T16:01:41.148Z,101757.38
2022-12-27T16:03:44.552Z,101763.59
2022-12-27T16:05:49.344Z,101757.50
2022-12-27T16:07:53.457Z,101766.22
2022-12-27T16:09:56.020Z,101763.72
2022-12-27T16:12:01.477Z,101768.94
2022-12-27T16:14:26.621Z,101765.59
2022-12-27T16:17:04.007Z,101771.63
2022-12-27T16:19:25.693Z,101770.91
2022-12-27T16:21:35.939Z,101764.75
2022-12-27T16:23:41.350Z,101768.47
2022-12-27T16:25:43.842Z,101763.25
2022-12-27T16:27:45.517Z,101767.47
2022-12-27T16:29:47.153Z,101762.31
2022-12-27T16:31:51.299Z,101755.41
2022-12-27T16:33:56.145Z,101762.50
2022-12-27T16:36:16.128Z,101762.41
2022-12-27T16:38:22.147Z,101768.63
2022-12-27T16:40:37.932Z,101768.78
2022-12-27T16:43:23.890Z,101777.72
2022-12-27T16:45:34.227Z,101782.13
2022-12-27T16:47:51.643Z,101774.78
2022-12-27T16:50:06.827Z,101781.00
2022-12-27T16:52:31.342Z,101773.09
2022-12-27T16:54:48.018Z,101776.59
2022-12-27T16:56:49.679Z,101783.50
2022-12-27T16:58:51.535Z,101779.19
2022-12-27T17:00:54.899Z,101790.66
2022-12-27T17:03:27.130Z,101788.03
2022-12-27T17:05:36.284Z,101782.69
2022-12-27T17:08:09.480Z,101786.22
2022-12-27T17:10:33.337Z,101789.88
2022-12-27T17:12:35.212Z,101782.75
2022-12-27T17:14:38.779Z,101780.03
2022-12-27T17:16:43.031Z,101780.19
2022-12-27T17:18:49.231Z,101781.06
2022-12-27T17:20:59.952Z,101779.28
2022-12-27T17:23:04.102Z,101772.31
2022-12-27T17:25:06.446Z,101776.78
2022-12-27T17:27:19.835Z,101773.28
2022-12-27T17:29:50.371Z,101776.69
2022-12-27T17:31:59.809Z,101772.44
2022-12-27T17:34:11.224Z,101777.88
2022-12-27T17:36:23.034Z,101790.22
2022-12-27T17:38:34.542Z,101784.88
2022-12-27T17:40:42.979Z,101790.16
2022-12-27T17:43:00.082Z,101790.19
2022-12-27T17:45:25.837Z,101783.03
2022-12-27T17:47:56.068Z,101793.53
2022-12-27T17:50:01.759Z,101793.69
2022-12-27T17:52:04.881Z,101796.41
2022-12-27T17:54:22.806Z,101798.16
2022-12-27T17:56:25.241Z,101787.78
2022-12-27T17:58:34.087Z,101797.44
2022-12-27T18:00:41.578Z,101792.25
2022-12-27T18:02:43.447Z,101795.69
2022-12-27T18:04:49.091Z,101788.56
2022-12-27T18:06:54.663Z,101791.13
2022-12-27T18:09:00.423Z,101785.03
2022-12-27T18:11:04.965Z,101786.81
2022-12-27T18:13:07.089Z,101793.84
2022-12-27T18:15:15.658Z,101792.06
2022-12-27T18:17:28.777Z,101795.66
2022-12-27T18:19:31.846Z,101791.28
2022-12-27T18:21:33.409Z,101794.72
2022-12-27T18:23:40.227Z,101790.41
2022-12-27T18:25:52.324Z,101786.03
2022-12-27T18:28:00.204Z,101788.66
2022-12-27T18:30:01.970Z,101779.69
2022-12-27T18:32:06.485Z,101769.94
2022-12-27T18:34:18.950Z,101774.06
2022-12-27T18:36:26.022Z,101781.03
2022-12-27T18:38:31.985Z,101773.97
2022-12-27T18:40:34.717Z,101766.97
2022-12-27T18:42:42.291Z,101768.88
2022-12-27T18:44:48.167Z,101767.16
2022-12-27T18:46:52.150Z,101769.84
2022-12-27T18:48:54.127Z,101766.53
2022-12-27T18:50:56.094Z,101769.22
2022-12-27T18:53:02.326Z,101764.88
2022-12-27T18:55:16.346Z,101761.44
2022-12-27T18:57:32.556Z,101772.72
2022-12-27T18:59:35.994Z,101760.22
2022-12-27T19:01:40.794Z,101760.22
2022-12-27T19:03:42.764Z,101756.75
2022-12-27T19:05:59.006Z,101768.09
2022-12-27T19:08:10.048Z,101760.03
2022-12-27T19:10:16.911Z,101768.16
2022-12-27T19:12:24.454Z,101757.66
2022-12-27T19:14:30.494Z,101760.28
2022-12-27T19:16:35.309Z,101762.19
2022-12-27T19:18:37.430Z,101758.78
2022-12-27T19:20:40.861Z,101755.97
2022-12-27T19:22:47.863Z,101748.91
2022-12-27T19:24:57.084Z,101749.75
2022-12-27T19:27:01.097Z,101748.16
2022-12-27T19:29:08.058Z,101736.78
2022-12-27T19:31:14.784Z,101740.28
2022-12-27T19:33:25.487Z,101746.53
2022-12-27T19:35:27.153Z,101743.00
2022-12-27T19:37:30.350Z,101749.13
2022-12-27T19:39:35.312Z,101745.47
2022-12-27T19:41:36.923Z,101748.22
2022-12-27T19:43:41.048Z,101753.28
2022-12-27T19:45:42.775Z,101756.91
2022-12-27T19:47:44.915Z,101754.09
2022-12-27T19:49:48.016Z,101752.25
2022-12-27T19:51:50.250Z,101746.13
2022-12-27T19:53:57.560Z,101753.09
2022-12-27T19:55:59.465Z,101752.88
2022-12-27T19:58:01.047Z,101746.81
2022-12-27T20:00:08.473Z,101750.19
2022-12-27T20:02:14.238Z,101749.28
2022-12-27T20:04:17.486Z,101740.59
2022-12-27T20:06:24.121Z,101735.16
2022-12-27T20:08:32.007Z,101737.00
2022-12-27T20:10:35.642Z,101738.69
2022-12-27T20:12:37.347Z,101729.72
2022-12-27T20:14:38.966Z,101730.56
2022-12-27T20:16:41.068Z,101724.56
2022-12-27T20:18:43.509Z,101732.38
2022-12-27T20:20:46.473Z,101740.19
2022-12-27T20:22:49.507Z,101735.63
2022-12-27T20:24:51.081Z,101734.81
2022-12-27T20:26:52.666Z,101734.94
2022-12-27T20:28:54.219Z,101737.44
2022-12-27T20:30:56.016Z,101730.41
2022-12-27T20:32:57.911Z,101725.16
2022-12-27T20:34:59.744Z,101731.28
2022-12-27T20:37:01.387Z,101733.81
2022-12-27T20:39:04.427Z,101732.03
2022-12-27T20:41:07.636Z,101725.81
2022-12-27T20:43:09.623Z,101732.28
2022-12-27T20:45:12.238Z,101729.53
2022-12-27T20:47:13.781Z,101735.84
2022-12-27T20:49:15.342Z,101719.22
2022-12-27T20:51:19.470Z,101715.69
2022-12-27T20:53:21.009Z,101715.38
2022-12-27T20:55:23.949Z,101711.75
2022-12-27T20:57:25.822Z,101710.56
2022-12-27T20:59:27.569Z,101713.31
2022-12-27T21:01:29.523Z,101709.72
2022-12-27T21:03:31.413Z,101708.78
2022-12-27T21:05:33.203Z,101707.78
2022-12-27T21:07:35.160Z,101704.44
2022-12-27T21:09:36.707Z,101706.19
2022-12-27T21:11:39.796Z,101706.09
2022-12-27T21:13:42.949Z,101709.66
2022-12-27T21:15:45.756Z,101695.53
2022-12-27T21:17:47.579Z,101699.16
2022-12-27T21:19:49.533Z,101702.50
2022-12-27T21:21:51.508Z,101690.25
2022-12-27T21:23:53.475Z,101699.16
2022-12-27T21:25:55.117Z,101697.13
2022-12-27T21:27:57.891Z,101695.78
2022-12-27T21:29:59.464Z,101692.06
2022-12-27T21:32:01.382Z,101693.72
2022-12-27T21:34:04.342Z,101692.81
2022-12-27T21:36:08.144Z,101701.47
2022-12-27T21:38:10.060Z,101687.34
2022-12-27T21:40:12.483Z,101687.22
2022-12-27T21:42:16.264Z,101693.97
2022-12-27T21:44:19.202Z,101696.94
2022-12-27T21:46:25.357Z,101694.88
2022-12-27T21:48:26.964Z,101694.34
2022-12-27T21:50:35.384Z,101680.81
2022-12-27T21:52:38.813Z,101678.25
2022-12-27T21:54:40.205Z,101680.00
2022-12-27T21:56:41.935Z,101685.66
2022-12-27T21:58:44.755Z,101684.56
2022-12-27T22:00:56.089Z,101682.88
2022-12-27T22:03:02.803Z,101676.72
2022-12-27T22:05:06.229Z,101668.00
2022-12-27T22:07:08.036Z,101666.47
2022-12-27T22:09:14.403Z,101663.63
2022-12-27T22:11:17.815Z,101669.97
2022-12-27T22:13:34.359Z,101670.16
2022-12-27T22:15:35.972Z,101666.09
2022-12-27T22:17:39.151Z,101661.44
2022-12-27T22:19:42.753Z,101656.22
2022-12-27T22:21:44.272Z,101649.13
2022-12-27T22:23:48.053Z,101648.94
2022-12-27T22:25:49.569Z,101638.50
2022-12-27T22:27:51.133Z,101640.13
2022-12-27T22:29:58.760Z,101636.75
2022-12-27T22:32:06.407Z,101640.41
2022-12-27T22:34:10.949Z,101621.09
2022-12-27T22:36:15.667Z,101627.41
2022-12-27T22:38:17.420Z,101621.09
2022-12-27T22:40:31.085Z,101614.28
2022-12-27T22:42:40.510Z,101623.00
2022-12-27T22:44:51.091Z,101613.41
2022-12-27T22:49:16.700Z,101622.47
2022-12-27T22:51:20.519Z,101626.88
2022-12-27T22:53:22.176Z,101637.91
2022-12-27T22:55:23.628Z,101631.94
2022-12-27T22:57:25.180Z,101627.44
2022-12-27T22:59:26.752Z,101622.72
2022-12-27T23:01:29.938Z,101607.72
2022-12-27T23:03:31.556Z,101607.56
2022-12-27T23:05:34.472Z,101601.34
2022-12-27T23:08:04.755Z,101609.66
2022-12-27T23:09:57.851Z,101613.38
2022-12-27T23:11:59.547Z,101600.81
2022-12-27T23:14:01.826Z,101588.75
2022-12-27T23:16:04.976Z,101600.84
2022-12-27T23:18:06.768Z,101583.47
2022-12-27T23:20:09.933Z,101598.47
2022-12-27T23:22:12.815Z,101605.25
2022-12-27T23:24:14.655Z,101597.16
2022-12-27T23:26:19.009Z,101588.13
2022-12-27T23:28:20.735Z,101586.28
2022-12-27T23:30:22.351Z,101576.72
2022-12-27T23:32:23.944Z,101584.81
2022-12-27T23:34:28.755Z,101586.13
2022-12-27T23:36:31.777Z,101571.69
2022-12-27T23:38:34.853Z,101568.13
2022-12-27T23:40:36.540Z,101562.91
2022-12-27T23:42:37.901Z,101578.69
2022-12-27T23:44:39.586Z,101567.16
2022-12-27T23:46:41.021Z,101570.72
2022-12-27T23:48:43.701Z,101567.25
2022-12-27T23:50:46.629Z,101566.91
2022-12-27T23:52:48.154Z,101561.84
2022-12-27T23:54:51.057Z,101559.00
2022-12-27T23:56:52.711Z,101557.25
2022-12-27T23:58:55.206Z,101557.56
